sensor_id;sensor_type;location;lat;lon;timestamp;pressure;altitude;pressure_sealevel;temperature;humidity
35023;BME280;21214;44.912;8.204;2023-02-28T00:02:14;100190.28;;;3.09;100.00
35023;BME280;21214;44.912;8.204;2023-02-28T00:04:39;100189.81;;;3.01;100.00
35023;BME280;21214;44.912;8.204;2023-02-28T00:07:05;100193.84;;;2.91;100.00
35023;BME280;21214;44.912;8.204;2023-02-28T00:09:30;100200.81;;;2.90;100.00
35023;BME280;21214;44.912;8.204;2023-02-28T00:11:55;100196.75;;;2.84;100.00
35023;BME280;21214;44.912;8.204;2023-02-28T00:14:21;100187.94;;;2.87;100.00
35023;BME280;21214;44.912;8.204;2023-02-28T00:16:46;100190.31;;;2.92;100.00
35023;BME280;21214;44.912;8.204;2023-02-28T00:19:11;100192.13;;;2.89;100.00
35023;BME280;21214;44.912;8.204;2023-02-28T00:21:38;100188.63;;;2.91;100.00
35023;BME280;21214;44.912;8.204;2023-02-28T00:24:06;100195.34;;;2.95;100.00
35023;BME280;21214;44.912;8.204;2023-02-28T00:26:31;100200.41;;;2.98;100.00
35023;BME280;21214;44.912;8.204;2023-02-28T00:28:57;100197.44;;;3.05;100.00
35023;BME280;21214;44.912;8.204;2023-02-28T00:31:22;100191.91;;;3.11;100.00
35023;BME280;21214;44.912;8.204;2023-02-28T00:33:48;100187.53;;;3.12;100.00
35023;BME280;21214;44.912;8.204;2023-02-28T00:36:13;100190.72;;;3.17;100.00
35023;BME280;21214;44.912;8.204;2023-02-28T00:38:39;100195.75;;;3.20;100.00
35023;BME280;21214;44.912;8.204;2023-02-28T00:41:05;100192.25;;;3.21;100.00
35023;BME280;21214;44.912;8.204;2023-02-28T00:43:31;100193.75;;;3.25;100.00
35023;BME280;21214;44.912;8.204;2023-02-28T00:45:56;100192.69;;;3.29;100.00
35023;BME280;21214;44.912;8.204;2023-02-28T00:48:22;100204.72;;;3.32;100.00
35023;BME280;21214;44.912;8.204;2023-02-28T00:50:48;100204.63;;;3.33;100.00
35023;BME280;21214;44.912;8.204;2023-02-28T00:53:14;100203.53;;;3.37;100.00
35023;BME280;21214;44.912;8.204;2023-02-28T00:55:39;100203.53;;;3.37;100.00
35023;BME280;21214;44.912;8.204;2023-02-28T00:58:05;100205.41;;;3.35;100.00
35023;BME280;21214;44.912;8.204;2023-02-28T01:00:30;100208.75;;;3.37;100.00
35023;BME280;21214;44.912;8.204;2023-02-28T01:02:55;100214.75;;;3.39;100.00
35023;BME280;21214;44.912;8.204;2023-02-28T01:05:21;100210.63;;;3.35;100.00
35023;BME280;21214;44.912;8.204;2023-02-28T01:07:46;100212.13;;;3.39;100.00
35023;BME280;21214;44.912;8.204;2023-02-28T01:10:12;100225.94;;;3.41;100.00
35023;BME280;21214;44.912;8.204;2023-02-28T01:12:37;100218.03;;;3.43;100.00
35023;BME280;21214;44.912;8.204;2023-02-28T01:15:03;100223.41;;;3.40;100.00
35023;BME280;21214;44.912;8.204;2023-02-28T01:17:29;100222.72;;;3.36;100.00
35023;BME280;21214;44.912;8.204;2023-02-28T01:19:54;100231.50;;;3.35;100.00
35023;BME280;21214;44.912;8.204;2023-02-28T01:22:23;100224.59;;;3.34;100.00
35023;BME280;21214;44.912;8.204;2023-02-28T01:24:49;100236.84;;;3.32;100.00
35023;BME280;21214;44.912;8.204;2023-02-28T01:27:14;100236.06;;;3.30;100.00
35023;BME280;21214;44.912;8.204;2023-02-28T01:29:39;100221.53;;;3.26;100.00
35023;BME280;21214;44.912;8.204;2023-02-28T01:32:05;100212.19;;;3.22;100.00
35023;BME280;21214;44.912;8.204;2023-02-28T01:34:30;100209.72;;;3.19;100.00
35023;BME280;21214;44.912;8.204;2023-02-28T01:36:55;100214.78;;;3.22;100.00
35023;BME280;21214;44.912;8.204;2023-02-28T01:39:23;100216.47;;;3.23;100.00
35023;BME280;21214;44.912;8.204;2023-02-28T01:41:49;100224.13;;;3.26;100.00
35023;BME280;21214;44.912;8.204;2023-02-28T01:46:58;100221.19;;;3.32;100.00
35023;BME280;21214;44.912;8.204;2023-02-28T01:49:23;100221.91;;;3.36;100.00
35023;BME280;21214;44.912;8.204;2023-02-28T01:51:53;100226.88;;;3.40;100.00
35023;BME280;21214;44.912;8.204;2023-02-28T01:54:29;100225.00;;;3.42;100.00
35023;BME280;21214;44.912;8.204;2023-02-28T01:56:58;100229.16;;;3.46;100.00
35023;BME280;21214;44.912;8.204;2023-02-28T01:59:26;100227.28;;;3.48;100.00
35023;BME280;21214;44.912;8.204;2023-02-28T02:01:52;100230.84;;;3.47;100.00
35023;BME280;21214;44.912;8.204;2023-02-28T02:04:18;100234.03;;;3.52;100.00
35023;BME280;21214;44.912;8.204;2023-02-28T02:06:45;100237.41;;;3.54;100.00
35023;BME280;21214;44.912;8.204;2023-02-28T02:09:12;100235.75;;;3.53;100.00
35023;BME280;21214;44.912;8.204;2023-02-28T02:11:39;100237.56;;;3.51;100.00
35023;BME280;21214;44.912;8.204;2023-02-28T02:17:20;100241.56;;;3.58;100.00
35023;BME280;21214;44.912;8.204;2023-02-28T02:20:27;100235.56;;;3.56;100.00
35023;BME280;21214;44.912;8.204;2023-02-28T02:25:29;100234.63;;;3.57;100.00
35023;BME280;21214;44.912;8.204;2023-02-28T02:33:26;100221.59;;;3.57;100.00
35023;BME280;21214;44.912;8.204;2023-02-28T02:38:46;100222.69;;;3.53;100.00
35023;BME280;21214;44.912;8.204;2023-02-28T02:41:24;100225.13;;;3.56;100.00
35023;BME280;21214;44.912;8.204;2023-02-28T02:43:56;100224.03;;;3.60;100.00
35023;BME280;21214;44.912;8.204;2023-02-28T02:46:29;100216.88;;;3.64;100.00
35023;BME280;21214;44.912;8.204;2023-02-28T02:48:57;100224.78;;;3.62;100.00
35023;BME280;21214;44.912;8.204;2023-02-28T02:51:25;100221.41;;;3.60;100.00
35023;BME280;21214;44.912;8.204;2023-02-28T02:53:53;100218.72;;;3.62;100.00
35023;BME280;21214;44.912;8.204;2023-02-28T02:56:21;100224.78;;;3.62;100.00
35023;BME280;21214;44.912;8.204;2023-02-28T02:58:49;100217.72;;;3.64;100.00
35023;BME280;21214;44.912;8.204;2023-02-28T03:01:18;100219.38;;;3.65;100.00
35023;BME280;21214;44.912;8.204;2023-02-28T03:04:02;100212.50;;;3.64;100.00
35023;BME280;21214;44.912;8.204;2023-02-28T03:06:29;100207.94;;;3.68;100.00
35023;BME280;21214;44.912;8.204;2023-02-28T03:08:54;100216.63;;;3.68;100.00
35023;BME280;21214;44.912;8.204;2023-02-28T03:11:21;100220.00;;;3.70;100.00
35023;BME280;21214;44.912;8.204;2023-02-28T03:24:16;100220.94;;;3.69;100.00
35023;BME280;21214;44.912;8.204;2023-02-28T03:26:45;100219.56;;;3.62;100.00
35023;BME280;21214;44.912;8.204;2023-02-28T03:29:18;100210.81;;;3.63;100.00
35023;BME280;21214;44.912;8.204;2023-02-28T03:31:51;100218.72;;;3.62;100.00
35023;BME280;21214;44.912;8.204;2023-02-28T03:34:24;100220.66;;;3.58;100.00
35023;BME280;21214;44.912;8.204;2023-02-28T03:36:55;100222.34;;;3.59;100.00
35023;BME280;21214;44.912;8.204;2023-02-28T03:39:56;100224.03;;;3.60;100.00
35023;BME280;21214;44.912;8.204;2023-02-28T03:42:23;100225.72;;;3.61;100.00
35023;BME280;21214;44.912;8.204;2023-02-28T03:49:43;100229.03;;;3.65;100.00
35023;BME280;21214;44.912;8.204;2023-02-28T03:52:10;100234.25;;;3.65;100.00
35023;BME280;21214;44.912;8.204;2023-02-28T03:54:42;100243.97;;;3.61;100.00
35023;BME280;21214;44.912;8.204;2023-02-28T03:57:15;100238.94;;;3.58;100.00
35023;BME280;21214;44.912;8.204;2023-02-28T03:59:45;100236.31;;;3.58;100.00
35023;BME280;21214;44.912;8.204;2023-02-28T04:02:12;100240.97;;;3.53;100.00
35023;BME280;21214;44.912;8.204;2023-02-28T04:04:38;100244.38;;;3.54;100.00
35023;BME280;21214;44.912;8.204;2023-02-28T04:07:04;100242.63;;;3.54;100.00
35023;BME280;21214;44.912;8.204;2023-02-28T04:09:30;100240.19;;;3.51;100.00
35023;BME280;21214;44.912;8.204;2023-02-28T04:11:55;100239.59;;;3.46;100.00
35023;BME280;21214;44.912;8.204;2023-02-28T04:14:21;100241.28;;;3.47;100.00
35023;BME280;21214;44.912;8.204;2023-02-28T04:16:47;100241.94;;;3.51;100.00
35023;BME280;21214;44.912;8.204;2023-02-28T04:19:12;100246.31;;;3.50;100.00
35023;BME280;21214;44.912;8.204;2023-02-28T04:21:39;100250.09;;;3.45;100.00
35023;BME280;21214;44.912;8.204;2023-02-28T04:24:04;100248.00;;;3.51;100.00
35023;BME280;21214;44.912;8.204;2023-02-28T04:26:30;100248.00;;;3.51;100.00
35023;BME280;21214;44.912;8.204;2023-02-28T04:28:56;100246.00;;;3.56;100.00
35023;BME280;21214;44.912;8.204;2023-02-28T04:31:22;100245.06;;;3.57;100.00
35023;BME280;21214;44.912;8.204;2023-02-28T04:33:47;100244.31;;;3.55;100.00
35023;BME280;21214;44.912;8.204;2023-02-28T04:36:12;100239.28;;;3.52;100.00
35023;BME280;21214;44.912;8.204;2023-02-28T04:38:39;100252.38;;;3.51;100.00
35023;BME280;21214;44.912;8.204;2023-02-28T04:41:05;100242.94;;;3.48;100.00
35023;BME280;21214;44.912;8.204;2023-02-28T04:43:30;100254.91;;;3.52;100.00
35023;BME280;21214;44.912;8.204;2023-02-28T04:45:56;100250.63;;;3.51;100.00
35023;BME280;21214;44.912;8.204;2023-02-28T04:48:26;100250.16;;;3.43;100.00
35023;BME280;21214;44.912;8.204;2023-02-28T04:50:52;100257.00;;;3.46;100.00
35023;BME280;21214;44.912;8.204;2023-02-28T04:53:17;100261.44;;;3.44;100.00
35023;BME280;21214;44.912;8.204;2023-02-28T04:55:43;100264.00;;;3.45;100.00
35023;BME280;21214;44.912;8.204;2023-02-28T04:58:08;100261.31;;;3.47;100.00
35023;BME280;21214;44.912;8.204;2023-02-28T05:00:34;100251.72;;;3.47;100.00
35023;BME280;21214;44.912;8.204;2023-02-28T05:02:59;100260.28;;;3.49;100.00
35023;BME280;21214;44.912;8.204;2023-02-28T05:05:25;100255.66;;;3.54;100.00
35023;BME280;21214;44.912;8.204;2023-02-28T05:07:50;100258.28;;;3.54;100.00
35023;BME280;21214;44.912;8.204;2023-02-28T05:10:15;100268.13;;;3.49;100.00
35023;BME280;21214;44.912;8.204;2023-02-28T05:12:41;100270.59;;;3.52;100.00
35023;BME280;21214;44.912;8.204;2023-02-28T05:15:07;100268.88;;;3.51;100.00
35023;BME280;21214;44.912;8.204;2023-02-28T05:17:33;100282.06;;;3.48;100.00
35023;BME280;21214;44.912;8.204;2023-02-28T05:19:58;100283.03;;;3.47;100.00
35023;BME280;21214;44.912;8.204;2023-02-28T05:22:24;100277.09;;;3.44;100.00
35023;BME280;21214;44.912;8.204;2023-02-28T05:24:49;100277.81;;;3.47;100.00
35023;BME280;21214;44.912;8.204;2023-02-28T05:27:14;100274.25;;;3.48;100.00
35023;BME280;21214;44.912;8.204;2023-02-28T05:29:40;100281.22;;;3.48;100.00
35023;BME280;21214;44.912;8.204;2023-02-28T05:32:09;100268.38;;;3.45;100.00
35023;BME280;21214;44.912;8.204;2023-02-28T05:34:35;100272.66;;;3.46;100.00
35023;BME280;21214;44.912;8.204;2023-02-28T05:37:00;100275.19;;;3.47;100.00
35023;BME280;21214;44.912;8.204;2023-02-28T05:39:26;100269.03;;;3.48;100.00
35023;BME280;21214;44.912;8.204;2023-02-28T05:41:51;100269.97;;;3.47;100.00
35023;BME280;21214;44.912;8.204;2023-02-28T05:44:16;100283.16;;;3.44;100.00
35023;BME280;21214;44.912;8.204;2023-02-28T05:46:42;100280.56;;;3.44;100.00
35023;BME280;21214;44.912;8.204;2023-02-28T05:49:07;100283.84;;;3.48;100.00
35023;BME280;21214;44.912;8.204;2023-02-28T05:51:32;100286.56;;;3.46;100.00
35023;BME280;21214;44.912;8.204;2023-02-28T05:53:59;100281.16;;;3.49;100.00
35023;BME280;21214;44.912;8.204;2023-02-28T05:56:25;100288.06;;;3.50;100.00
35023;BME280;21214;44.912;8.204;2023-02-28T05:58:50;100293.97;;;3.54;100.00
35023;BME280;21214;44.912;8.204;2023-02-28T06:01:20;100292.31;;;3.53;100.00
35023;BME280;21214;44.912;8.204;2023-02-28T06:03:46;100294.22;;;3.49;100.00
35023;BME280;21214;44.912;8.204;2023-02-28T06:06:11;100291.59;;;3.49;100.00
35023;BME280;21214;44.912;8.204;2023-02-28T06:08:37;100297.66;;;3.50;100.00
35023;BME280;21214;44.912;8.204;2023-02-28T06:11:03;100291.59;;;3.49;100.00
35023;BME280;21214;44.912;8.204;2023-02-28T06:13:28;100296.16;;;3.46;100.00
35023;BME280;21214;44.912;8.204;2023-02-28T06:15:53;100301.38;;;3.46;100.00
35023;BME280;21214;44.912;8.204;2023-02-28T06:18:19;100303.91;;;3.47;100.00
35023;BME280;21214;44.912;8.204;2023-02-28T06:20:44;100297.66;;;3.50;100.00
35023;BME280;21214;44.912;8.204;2023-02-28T06:23:09;100306.34;;;3.50;100.00
35023;BME280;21214;44.912;8.204;2023-02-28T06:25:35;100305.41;;;3.51;100.00
35023;BME280;21214;44.912;8.204;2023-02-28T06:28:00;100301.91;;;3.52;100.00
35023;BME280;21214;44.912;8.204;2023-02-28T06:30:25;100308.34;;;3.45;100.00
35023;BME280;21214;44.912;8.204;2023-02-28T06:32:53;100307.25;;;3.49;100.00
35023;BME280;21214;44.912;8.204;2023-02-28T06:35:19;100314.16;;;3.50;100.00
35023;BME280;21214;44.912;8.204;2023-02-28T06:37:45;100327.81;;;3.55;100.00
35023;BME280;21214;44.912;8.204;2023-02-28T06:40:10;100322.59;;;3.55;100.00
35023;BME280;21214;44.912;8.204;2023-02-28T06:42:36;100325.13;;;3.57;100.00
35023;BME280;21214;44.912;8.204;2023-02-28T06:45:01;100327.97;;;3.52;100.00
35023;BME280;21214;44.912;8.204;2023-02-28T06:47:31;100329.69;;;3.53;100.00
35023;BME280;21214;44.912;8.204;2023-02-28T06:49:56;100326.81;;;3.58;100.00
35023;BME280;21214;44.912;8.204;2023-02-28T06:52:22;100331.94;;;3.59;100.00
35023;BME280;21214;44.912;8.204;2023-02-28T06:54:47;100329.50;;;3.56;100.00
35023;BME280;21214;44.912;8.204;2023-02-28T06:57:24;100341.47;;;3.60;100.00
35023;BME280;21214;44.912;8.204;2023-02-28T06:59:50;100344.16;;;3.59;100.00
35023;BME280;21214;44.912;8.204;2023-02-28T07:02:15;100338.78;;;3.62;100.00
35023;BME280;21214;44.912;8.204;2023-02-28T07:04:40;100340.72;;;3.58;100.00
35023;BME280;21214;44.912;8.204;2023-02-28T07:07:09;100351.91;;;3.60;100.00
35023;BME280;21214;44.912;8.204;2023-02-28T07:09:35;100341.47;;;3.60;100.00
35023;BME280;21214;44.912;8.204;2023-02-28T07:12:00;100345.00;;;3.59;100.00
35023;BME280;21214;44.912;8.204;2023-02-28T07:14:25;100347.00;;;3.54;100.00
35023;BME280;21214;44.912;8.204;2023-02-28T07:16:51;100348.53;;;3.58;100.00
35023;BME280;21214;44.912;8.204;2023-02-28T07:19:16;100345.09;;;3.58;100.00
35023;BME280;21214;44.912;8.204;2023-02-28T07:21:42;100354.44;;;3.62;100.00
35023;BME280;21214;44.912;8.204;2023-02-28T07:24:07;100363.97;;;3.63;100.00
35023;BME280;21214;44.912;8.204;2023-02-28T07:26:32;100360.19;;;3.68;100.00
35023;BME280;21214;44.912;8.204;2023-02-28T07:29:02;100363.72;;;3.67;100.00
35023;BME280;21214;44.912;8.204;2023-02-28T07:31:27;100365.22;;;3.71;100.00
35023;BME280;21214;44.912;8.204;2023-02-28T07:33:53;100364.50;;;3.69;100.00
35023;BME280;21214;44.912;8.204;2023-02-28T07:36:19;100362.53;;;3.73;100.00
35023;BME280;21214;44.912;8.204;2023-02-28T07:38:45;100370.25;;;3.76;100.00
35023;BME280;21214;44.912;8.204;2023-02-28T07:41:13;100370.31;;;3.75;100.00
35023;BME280;21214;44.912;8.204;2023-02-28T07:43:38;100370.31;;;3.75;100.00
35023;BME280;21214;44.912;8.204;2023-02-28T07:46:08;100357.19;;;3.76;100.00
35023;BME280;21214;44.912;8.204;2023-02-28T07:48:34;100361.38;;;3.79;100.00
35023;BME280;21214;44.912;8.204;2023-02-28T07:50:59;100366.53;;;3.80;100.00
35023;BME280;21214;44.912;8.204;2023-02-28T07:53:25;100373.59;;;3.78;100.00
35023;BME280;21214;44.912;8.204;2023-02-28T07:55:54;100377.66;;;3.84;100.00
35023;BME280;21214;44.912;8.204;2023-02-28T07:58:19;100385.34;;;3.87;100.00
35023;BME280;21214;44.912;8.204;2023-02-28T08:00:45;100381.94;;;3.85;100.00
35023;BME280;21214;44.912;8.204;2023-02-28T08:03:11;100389.63;;;3.88;100.00
35023;BME280;21214;44.912;8.204;2023-02-28T08:05:39;100392.91;;;3.91;100.00
35023;BME280;21214;44.912;8.204;2023-02-28T08:08:05;100396.38;;;3.92;100.00
35023;BME280;21214;44.912;8.204;2023-02-28T08:10:31;100398.16;;;3.91;100.00
35023;BME280;21214;44.912;8.204;2023-02-28T08:12:56;100383.63;;;3.86;100.00
35023;BME280;21214;44.912;8.204;2023-02-28T08:15:21;100401.00;;;3.87;100.00
35023;BME280;21214;44.912;8.204;2023-02-28T08:17:46;100414.97;;;3.86;100.00
35023;BME280;21214;44.912;8.204;2023-02-28T08:20:12;100403.63;;;3.87;100.00
35023;BME280;21214;44.912;8.204;2023-02-28T08:22:38;100401.84;;;3.87;100.00
35023;BME280;21214;44.912;8.204;2023-02-28T08:25:03;100404.22;;;3.92;100.00
35023;BME280;21214;44.912;8.204;2023-02-28T08:27:29;100409.75;;;3.86;100.00
35023;BME280;21214;44.912;8.204;2023-02-28T08:29:54;100407.00;;;3.89;100.00
35023;BME280;21214;44.912;8.204;2023-02-28T08:32:20;100408.84;;;3.87;100.00
35023;BME280;21214;44.912;8.204;2023-02-28T08:34:45;100407.13;;;3.86;100.00
35023;BME280;21214;44.912;8.204;2023-02-28T08:37:10;100411.44;;;3.87;100.00
35023;BME280;21214;44.912;8.204;2023-02-28T08:39:36;100412.97;;;3.91;100.00
35023;BME280;21214;44.912;8.204;2023-02-28T08:42:02;100415.44;;;3.94;100.00
35023;BME280;21214;44.912;8.204;2023-02-28T08:44:28;100409.25;;;3.95;100.00
35023;BME280;21214;44.912;8.204;2023-02-28T08:46:53;100412.50;;;4.00;100.00
35023;BME280;21214;44.912;8.204;2023-02-28T08:49:19;100414.00;;;4.04;100.00
35023;BME280;21214;44.912;8.204;2023-02-28T08:51:45;100413.69;;;4.10;100.00
35023;BME280;21214;44.912;8.204;2023-02-28T08:54:11;100416.13;;;4.13;100.00
35023;BME280;21214;44.912;8.204;2023-02-28T08:56:41;100415.13;;;4.16;100.00
35023;BME280;21214;44.912;8.204;2023-02-28T08:59:08;100415.06;;;4.17;100.00
35023;BME280;21214;44.912;8.204;2023-02-28T09:01:34;100415.22;;;4.14;100.00
35023;BME280;21214;44.912;8.204;2023-02-28T09:03:59;100421.28;;;4.15;100.00
35023;BME280;21214;44.912;8.204;2023-02-28T09:06:26;100421.97;;;4.18;100.00
35023;BME280;21214;44.912;8.204;2023-02-28T09:08:51;100427.88;;;4.22;100.00
35023;BME280;21214;44.912;8.204;2023-02-28T09:11:17;100431.94;;;4.27;100.00
35023;BME280;21214;44.912;8.204;2023-02-28T09:13:44;100428.41;;;4.28;100.00
35023;BME280;21214;44.912;8.204;2023-02-28T09:16:10;100431.09;;;4.27;100.00
35023;BME280;21214;44.912;8.204;2023-02-28T09:18:37;100444.00;;;4.30;100.00
35023;BME280;21214;44.912;8.204;2023-02-28T09:21:03;100442.06;;;4.33;100.00
35023;BME280;21214;44.912;8.204;2023-02-28T09:23:29;100441.72;;;4.39;100.00
35023;BME280;21214;44.912;8.204;2023-02-28T09:25:54;100443.09;;;4.46;100.00
35023;BME280;21214;44.912;8.204;2023-02-28T09:28:20;100432.53;;;4.48;100.00
35023;BME280;21214;44.912;8.204;2023-02-28T09:30:46;100439.56;;;4.47;100.00
35023;BME280;21214;44.912;8.204;2023-02-28T09:33:12;100441.91;;;4.52;100.00
35023;BME280;21214;44.912;8.204;2023-02-28T09:35:38;100444.28;;;4.57;100.00
35023;BME280;21214;44.912;8.204;2023-02-28T09:38:03;100446.63;;;4.61;100.00
35023;BME280;21214;44.912;8.204;2023-02-28T09:40:30;100445.63;;;4.64;100.00
35023;BME280;21214;44.912;8.204;2023-02-28T09:42:56;100447.56;;;4.60;100.00
35023;BME280;21214;44.912;8.204;2023-02-28T09:45:24;100449.69;;;4.69;100.00
35023;BME280;21214;44.912;8.204;2023-02-28T09:47:52;100446.56;;;4.63;100.00
35023;BME280;21214;44.912;8.204;2023-02-28T09:52:54;100439.72;;;4.76;100.00
35023;BME280;21214;44.912;8.204;2023-02-28T09:57:53;100442.75;;;4.84;100.00
35023;BME280;21214;44.912;8.204;2023-02-28T10:00:21;100447.47;;;4.93;100.00
35023;BME280;21214;44.912;8.204;2023-02-28T10:02:57;100438.88;;;4.91;100.00
35023;BME280;21214;44.912;8.204;2023-02-28T10:10:37;100450.69;;;4.82;100.00
35023;BME280;21214;44.912;8.204;2023-02-28T10:13:05;100450.50;;;4.85;100.00
35023;BME280;21214;44.912;8.204;2023-02-28T10:15:31;100460.31;;;4.82;99.57
35023;BME280;21214;44.912;8.204;2023-02-28T10:18:11;100455.81;;;4.84;99.08
35023;BME280;21214;44.912;8.204;2023-02-28T10:20:38;100454.47;;;4.92;99.81
35023;BME280;21214;44.912;8.204;2023-02-28T10:23:24;100447.06;;;5.01;100.00
35023;BME280;21214;44.912;8.204;2023-02-28T10:25:55;100452.03;;;5.05;100.00
35023;BME280;21214;44.912;8.204;2023-02-28T10:28:24;100449.31;;;5.07;100.00
35023;BME280;21214;44.912;8.204;2023-02-28T10:30:51;100448.84;;;5.00;100.00
35023;BME280;21214;44.912;8.204;2023-02-28T10:33:24;100453.22;;;5.00;100.00
35023;BME280;21214;44.912;8.204;2023-02-28T10:35:50;100451.28;;;4.87;100.00
35023;BME280;21214;44.912;8.204;2023-02-28T10:38:24;100449.66;;;4.85;100.00
35023;BME280;21214;44.912;8.204;2023-02-28T10:43:33;100451.53;;;4.67;100.00
35023;BME280;21214;44.912;8.204;2023-02-28T10:46:20;100451.00;;;4.61;100.00
35023;BME280;21214;44.912;8.204;2023-02-28T10:49:07;100450.84;;;4.64;100.00
35023;BME280;21214;44.912;8.204;2023-02-28T10:51:38;100448.66;;;4.72;100.00
35023;BME280;21214;44.912;8.204;2023-02-28T10:54:04;100445.88;;;4.75;100.00
35023;BME280;21214;44.912;8.204;2023-02-28T10:56:30;100441.75;;;4.71;100.00
35023;BME280;21214;44.912;8.204;2023-02-28T10:58:57;100441.25;;;4.80;100.00
35023;BME280;21214;44.912;8.204;2023-02-28T11:03:55;100438.63;;;4.80;100.00
35023;BME280;21214;44.912;8.204;2023-02-28T11:06:23;100438.28;;;4.86;100.00
35023;BME280;21214;44.912;8.204;2023-02-28T11:09:00;100441.81;;;4.85;100.00
35023;BME280;21214;44.912;8.204;2023-02-28T11:11:27;100436.19;;;4.77;100.00
35023;BME280;21214;44.912;8.204;2023-02-28T11:13:58;100431.28;;;4.86;100.00
35023;BME280;21214;44.912;8.204;2023-02-28T11:16:31;100435.16;;;4.95;100.00
35023;BME280;21214;44.912;8.204;2023-02-28T11:18:57;100436.91;;;5.10;100.00
35023;BME280;21214;44.912;8.204;2023-02-28T11:21:35;100432.09;;;5.18;100.00
35023;BME280;21214;44.912;8.204;2023-02-28T11:28:32;100426.22;;;4.99;100.00
35023;BME280;21214;44.912;8.204;2023-02-28T11:31:34;100418.28;;;5.01;100.00
35023;BME280;21214;44.912;8.204;2023-02-28T11:34:24;100410.19;;;5.05;100.00
35023;BME280;21214;44.912;8.204;2023-02-28T11:39:38;100408.50;;;5.34;100.00
35023;BME280;21214;44.912;8.204;2023-02-28T11:44:52;100400.59;;;5.50;97.35
35023;BME280;21214;44.912;8.204;2023-02-28T11:59:52;100382.91;;;6.11;94.12
35023;BME280;21214;44.912;8.204;2023-02-28T12:02:26;100389.84;;;6.12;92.85
35023;BME280;21214;44.912;8.204;2023-02-28T12:04:57;100381.03;;;6.13;94.72
35023;BME280;21214;44.912;8.204;2023-02-28T12:20:26;100373.16;;;6.28;93.55
35023;BME280;21214;44.912;8.204;2023-02-28T12:28:09;100365.00;;;6.32;92.14
35023;BME280;21214;44.912;8.204;2023-02-28T12:30:37;100354.44;;;6.34;91.68
35023;BME280;21214;44.912;8.204;2023-02-28T12:33:08;100358.84;;;6.19;91.09
35023;BME280;21214;44.912;8.204;2023-02-28T12:35:38;100354.44;;;6.20;92.68
35023;BME280;21214;44.912;8.204;2023-02-28T12:38:09;100354.28;;;6.08;93.11
35023;BME280;21214;44.912;8.204;2023-02-28T12:40:44;100357.28;;;5.88;94.03
35023;BME280;21214;44.912;8.204;2023-02-28T12:43:12;100348.47;;;5.89;94.90
35023;BME280;21214;44.912;8.204;2023-02-28T12:45:43;100344.91;;;5.76;94.50
35023;BME280;21214;44.912;8.204;2023-02-28T12:48:11;100342.28;;;5.76;94.72
35023;BME280;21214;44.912;8.204;2023-02-28T12:50:38;100343.34;;;5.88;95.81
35023;BME280;21214;44.912;8.204;2023-02-28T12:58:38;100332.75;;;5.75;96.06
35023;BME280;21214;44.912;8.204;2023-02-28T13:08:32;100325.38;;;5.96;95.61
35023;BME280;21214;44.912;8.204;2023-02-28T13:11:01;100325.44;;;6.08;95.71
35023;BME280;21214;44.912;8.204;2023-02-28T13:13:28;100310.81;;;6.18;95.84
35023;BME280;21214;44.912;8.204;2023-02-28T13:16:09;100317.28;;;6.13;95.52
35023;BME280;21214;44.912;8.204;2023-02-28T13:18:45;100309.34;;;6.14;95.51
35023;BME280;21214;44.912;8.204;2023-02-28T13:29:20;100304.94;;;6.29;95.38
35023;BME280;21214;44.912;8.204;2023-02-28T13:34:31;100303.94;;;6.18;94.62
35023;BME280;21214;44.912;8.204;2023-02-28T13:42:22;100299.91;;;6.12;95.90
35023;BME280;21214;44.912;8.204;2023-02-28T13:45:30;100298.84;;;6.14;95.28
35023;BME280;21214;44.912;8.204;2023-02-28T13:47:40;100284.44;;;6.22;95.43
35023;BME280;21214;44.912;8.204;2023-02-28T13:52:55;100273.78;;;6.10;97.14
35023;BME280;21214;44.912;8.204;2023-02-28T14:03:06;100280.59;;;6.13;94.10
35023;BME280;21214;44.912;8.204;2023-02-28T14:05:34;100272.25;;;6.21;94.22
35023;BME280;21214;44.912;8.204;2023-02-28T14:08:21;100275.25;;;6.29;93.38
35023;BME280;21214;44.912;8.204;2023-02-28T14:10:48;100267.56;;;6.26;92.02
35023;BME280;21214;44.912;8.204;2023-02-28T14:16:01;100257.78;;;6.15;93.72
35023;BME280;21214;44.912;8.204;2023-02-28T14:18:33;100259.22;;;6.06;94.50
35023;BME280;21214;44.912;8.204;2023-02-28T14:23:34;100256.16;;;6.27;94.06
35023;BME280;21214;44.912;8.204;2023-02-28T14:28:45;100241.91;;;6.31;93.65
35023;BME280;21214;44.912;8.204;2023-02-28T14:31:33;100232.53;;;6.41;94.13
35023;BME280;21214;44.912;8.204;2023-02-28T14:36:36;100236.63;;;6.45;93.59
35023;BME280;21214;44.912;8.204;2023-02-28T14:39:06;100236.31;;;6.49;93.98
35023;BME280;21214;44.912;8.204;2023-02-28T14:41:37;100232.66;;;6.52;94.17
35023;BME280;21214;44.912;8.204;2023-02-28T14:46:41;100231.72;;;6.53;96.93
35023;BME280;21214;44.912;8.204;2023-02-28T14:49:19;100221.91;;;6.42;98.58
35023;BME280;21214;44.912;8.204;2023-02-28T14:51:46;100215.69;;;6.31;100.00
35023;BME280;21214;44.912;8.204;2023-02-28T14:54:16;100217.19;;;6.35;100.00
35023;BME280;21214;44.912;8.204;2023-02-28T14:56:42;100217.59;;;6.29;100.00
35023;BME280;21214;44.912;8.204;2023-02-28T14:59:22;100223.00;;;6.26;100.00
35023;BME280;21214;44.912;8.204;2023-02-28T15:01:48;100211.81;;;6.24;100.00
35023;BME280;21214;44.912;8.204;2023-02-28T15:04:36;100205.41;;;6.28;100.00
35023;BME280;21214;44.912;8.204;2023-02-28T15:07:07;100207.50;;;6.23;100.00
35023;BME280;21214;44.912;8.204;2023-02-28T15:09:32;100205.97;;;6.06;100.00
35023;BME280;21214;44.912;8.204;2023-02-28T15:11:57;100209.22;;;6.09;100.00
35023;BME280;21214;44.912;8.204;2023-02-28T15:14:23;100207.22;;;6.00;100.00
35023;BME280;21214;44.912;8.204;2023-02-28T15:16:52;100195.03;;;5.99;100.00